createdAt,value
2022-07-26T00:01:23.773Z,1.83
2022-07-26T00:03:56.344Z,1.70
2022-07-26T00:06:26.675Z,1.40
2022-07-26T00:08:54.619Z,1.17
2022-07-26T00:11:22.961Z,1.13
2022-07-26T00:13:51.598Z,1.20
2022-07-26T00:16:20.935Z,1.50
2022-07-26T00:18:49.321Z,1.42
2022-07-26T00:22:21.355Z,1.55
2022-07-26T00:24:50.768Z,1.45
2022-07-26T00:27:20.161Z,1.80
2022-07-26T00:29:48.132Z,1.60
2022-07-26T00:32:18.423Z,1.48
2022-07-26T00:34:46.174Z,1.85
2022-07-26T00:37:18.355Z,1.60
2022-07-26T00:39:48.215Z,1.50
2022-07-26T00:42:16.478Z,1.55
2022-07-26T00:44:46.522Z,1.63
2022-07-26T00:47:14.689Z,1.60
2022-07-26T00:49:46.002Z,1.55
2022-07-26T00:52:15.133Z,1.70
2022-07-26T00:55:44.367Z,1.70
2022-07-26T00:58:13.488Z,1.95
2022-07-26T01:00:41.460Z,1.67
2022-07-26T01:03:09.531Z,1.95
2022-07-26T01:05:39.038Z,1.98
2022-07-26T01:08:07.797Z,1.80
2022-07-26T01:10:37.197Z,1.88
2022-07-26T01:13:06.031Z,2.07
2022-07-26T01:15:34.038Z,2.25
2022-07-26T01:18:02.124Z,2.00
2022-07-26T01:20:30.061Z,1.63
2022-07-26T01:22:59.141Z,1.70
2022-07-26T01:25:31.662Z,2.13
2022-07-26T01:27:59.724Z,1.83
2022-07-26T01:30:27.964Z,1.50
2022-07-26T01:32:56.903Z,2.00
2022-07-26T01:35:24.729Z,2.03
2022-07-26T01:37:59.993Z,1.85
2022-07-26T01:40:27.820Z,1.85
2022-07-26T01:42:55.790Z,1.25
2022-07-26T01:45:24.752Z,1.45
2022-07-26T01:47:53.365Z,1.45
2022-07-26T01:50:21.449Z,1.42
2022-07-26T01:52:49.277Z,1.60
2022-07-26T01:55:18.585Z,1.83
2022-07-26T01:57:47.391Z,1.60
2022-07-26T02:00:16.771Z,1.50
2022-07-26T02:02:45.227Z,1.55
2022-07-26T02:05:15.266Z,1.58
2022-07-26T02:07:44.702Z,1.70
2022-07-26T02:10:13.495Z,1.60
2022-07-26T02:12:45.034Z,1.67
2022-07-26T02:15:15.000Z,1.60
2022-07-26T02:17:44.558Z,1.48
2022-07-26T02:20:13.151Z,1.58
2022-07-26T02:22:40.947Z,1.65
2022-07-26T02:25:10.249Z,1.65
2022-07-26T02:27:38.336Z,1.70
2022-07-26T02:30:08.423Z,1.67
2022-07-26T02:32:36.105Z,1.80
2022-07-26T02:35:06.376Z,2.10
2022-07-26T02:37:42.465Z,2.08
2022-07-26T02:40:17.052Z,1.52
2022-07-26T02:42:48.660Z,1.95
2022-07-26T02:45:17.940Z,1.75
2022-07-26T02:47:49.772Z,1.90
2022-07-26T02:50:18.836Z,1.67
2022-07-26T02:52:48.105Z,1.90
2022-07-26T02:55:16.120Z,1.60
2022-07-26T02:57:46.497Z,1.80
2022-07-26T03:00:18.317Z,1.90
2022-07-26T03:02:47.747Z,2.08
2022-07-26T03:05:15.556Z,2.00
2022-07-26T03:07:43.826Z,1.70
2022-07-26T03:10:12.629Z,1.98
2022-07-26T03:12:40.495Z,2.05
2022-07-26T03:15:09.192Z,2.00
2022-07-26T03:17:38.447Z,1.73
2022-07-26T03:20:08.016Z,2.40
2022-07-26T03:22:37.738Z,2.10
2022-07-26T03:25:06.695Z,1.70
2022-07-26T03:31:16.080Z,2.40
2022-07-26T03:33:45.125Z,1.90
2022-07-26T03:36:15.735Z,2.15
2022-07-26T03:38:44.454Z,3.00
2022-07-26T03:41:13.391Z,2.40
2022-07-26T03:43:42.247Z,2.42
2022-07-26T03:46:10.225Z,2.50
2022-07-26T03:48:39.017Z,2.35
2022-07-26T03:51:08.748Z,2.50
2022-07-26T03:53:36.426Z,2.53
2022-07-26T03:56:21.642Z,2.38
2022-07-26T03:58:50.176Z,2.78
2022-07-26T04:01:18.386Z,2.97
2022-07-26T04:03:47.843Z,2.27
2022-07-26T04:06:17.958Z,3.10
2022-07-26T04:08:46.534Z,2.40
2022-07-26T04:11:15.005Z,2.42
2022-07-26T04:13:44.527Z,2.50
2022-07-26T04:16:14.543Z,3.03
2022-07-26T04:18:42.839Z,2.20
2022-07-26T04:21:11.569Z,2.30
2022-07-26T04:23:40.891Z,2.38
2022-07-26T04:26:08.736Z,2.40
2022-07-26T04:28:36.501Z,2.30
2022-07-26T04:31:04.529Z,2.58
2022-07-26T04:33:33.040Z,2.72
2022-07-26T04:36:01.215Z,2.60
2022-07-26T04:38:29.142Z,2.90
2022-07-26T04:40:58.961Z,2.50
2022-07-26T04:43:26.889Z,3.33
2022-07-26T04:45:54.856Z,2.65
2022-07-26T04:48:23.372Z,7.35
2022-07-26T04:50:51.249Z,3.08
2022-07-26T04:53:19.229Z,2.90
2022-07-26T04:55:47.814Z,2.78
2022-07-26T04:58:17.167Z,2.80
2022-07-26T05:03:36.667Z,2.55
2022-07-26T05:06:04.647Z,3.05
2022-07-26T05:08:33.404Z,2.72
2022-07-26T05:11:01.258Z,2.73
2022-07-26T05:13:31.215Z,2.65
2022-07-26T05:16:01.716Z,2.53
2022-07-26T05:18:43.953Z,3.10
2022-07-26T05:21:14.172Z,2.63
2022-07-26T05:23:42.766Z,2.97
2022-07-26T05:26:12.063Z,2.85
2022-07-26T05:32:22.682Z,2.88
2022-07-26T05:34:51.643Z,2.70
2022-07-26T05:37:20.203Z,3.50
2022-07-26T05:39:49.505Z,2.65
2022-07-26T05:42:18.908Z,2.80
2022-07-26T05:44:47.502Z,3.15
2022-07-26T05:47:15.321Z,3.50
2022-07-26T05:49:48.030Z,3.30
2022-07-26T05:52:15.909Z,3.17
2022-07-26T05:54:44.548Z,2.42
2022-07-26T05:57:13.083Z,3.25
2022-07-26T05:59:41.327Z,2.80
2022-07-26T06:02:09.530Z,3.03
2022-07-26T06:04:39.030Z,2.92
2022-07-26T06:07:10.496Z,3.30
2022-07-26T06:09:38.532Z,2.78
2022-07-26T06:12:07.280Z,2.67
2022-07-26T06:14:34.920Z,3.90
2022-07-26T06:17:04.438Z,3.13
2022-07-26T06:19:32.381Z,3.73
2022-07-26T06:22:00.261Z,2.97
2022-07-26T06:24:29.794Z,2.80
2022-07-26T06:27:04.733Z,2.75
2022-07-26T06:29:33.195Z,3.40
2022-07-26T06:32:00.898Z,2.63
2022-07-26T06:34:28.505Z,3.03
2022-07-26T06:36:56.141Z,3.65
2022-07-26T06:39:23.764Z,2.97
2022-07-26T06:41:52.849Z,2.67
2022-07-26T06:44:20.397Z,5.78
2022-07-26T06:46:48.130Z,2.50
2022-07-26T06:49:19.400Z,5.20
2022-07-26T06:51:49.586Z,8.10
2022-07-26T06:54:17.235Z,2.55
2022-07-26T06:56:44.857Z,5.10
2022-07-26T06:59:13.730Z,3.10
2022-07-26T07:01:51.665Z,2.95
2022-07-26T07:04:27.509Z,4.85
2022-07-26T07:06:55.293Z,2.53
2022-07-26T07:09:25.510Z,3.08
2022-07-26T07:11:58.608Z,3.53
2022-07-26T07:14:29.266Z,5.68
2022-07-26T07:16:57.386Z,2.90
2022-07-26T07:19:25.711Z,2.72
2022-07-26T07:21:53.380Z,2.63
2022-07-26T07:24:21.436Z,3.30
2022-07-26T07:26:50.172Z,4.35
2022-07-26T07:29:20.159Z,5.43
2022-07-26T07:31:50.198Z,4.82
2022-07-26T07:34:22.510Z,5.85
2022-07-26T07:36:51.521Z,2.85
2022-07-26T07:39:19.526Z,4.57
2022-07-26T07:41:47.740Z,2.92
2022-07-26T07:44:15.687Z,2.45
2022-07-26T07:46:44.146Z,3.37
2022-07-26T07:49:13.543Z,3.15
2022-07-26T07:51:41.287Z,4.60
2022-07-26T07:54:10.099Z,2.35
2022-07-26T07:56:37.737Z,3.47
2022-07-26T07:59:07.264Z,2.40
2022-07-26T08:01:40.636Z,2.20
2022-07-26T08:04:09.283Z,3.20
2022-07-26T08:06:41.337Z,2.50
2022-07-26T08:09:10.492Z,2.20
2022-07-26T08:12:45.587Z,2.67
2022-07-26T08:15:13.591Z,2.53
2022-07-26T08:17:42.601Z,2.50
2022-07-26T08:20:15.832Z,1.60
2022-07-26T08:22:45.338Z,1.30
2022-07-26T08:25:13.245Z,1.30
2022-07-26T08:27:42.157Z,1.70
2022-07-26T08:30:11.993Z,1.90
2022-07-26T08:32:39.876Z,2.85
2022-07-26T08:35:17.406Z,3.20
2022-07-26T08:37:48.973Z,3.45
2022-07-26T08:40:16.883Z,2.75
2022-07-26T08:42:52.562Z,2.50
2022-07-26T08:45:24.091Z,1.73
2022-07-26T08:48:16.247Z,1.17
2022-07-26T08:50:42.337Z,0.00
2022-07-26T08:53:13.147Z,0.00
2022-07-26T09:02:12.861Z,0.00
2022-07-26T09:04:44.618Z,0.40
2022-07-26T09:07:15.639Z,0.00
2022-07-26T09:10:00.575Z,0.00
2022-07-26T09:12:30.749Z,0.00
2022-07-26T09:15:00.005Z,0.00
2022-07-26T09:17:40.674Z,0.00
2022-07-26T09:20:10.540Z,0.00
2022-07-26T09:22:40.122Z,0.10
2022-07-26T09:25:21.770Z,0.00
2022-07-26T09:27:50.038Z,0.00
2022-07-26T09:30:19.104Z,0.10
2022-07-26T09:33:01.259Z,0.40
2022-07-26T09:35:50.885Z,0.10
2022-07-26T09:38:19.208Z,0.00
2022-07-26T09:40:51.019Z,0.10
2022-07-26T09:43:24.350Z,0.00
2022-07-26T09:46:05.749Z,0.00
2022-07-26T09:49:08.026Z,0.30
2022-07-26T09:51:38.567Z,0.10
2022-07-26T09:54:06.928Z,0.00
2022-07-26T09:56:48.298Z,0.00
2022-07-26T09:59:17.268Z,0.00
2022-07-26T10:01:45.433Z,0.00
2022-07-26T10:04:13.983Z,0.00
2022-07-26T10:06:43.590Z,0.00
2022-07-26T10:09:12.559Z,0.00
2022-07-26T10:11:44.193Z,0.30
2022-07-26T10:14:42.854Z,0.10
2022-07-26T10:17:49.283Z,0.00
2022-07-26T10:20:46.613Z,0.00
2022-07-26T10:23:39.875Z,0.00
2022-07-26T10:26:10.174Z,0.00
2022-07-26T10:28:41.571Z,0.00
2022-07-26T10:31:31.161Z,0.08
2022-07-26T10:34:01.927Z,0.00
2022-07-26T10:36:32.775Z,0.00
2022-07-26T10:39:10.927Z,0.00
2022-07-26T10:41:44.729Z,0.00
2022-07-26T10:44:20.996Z,0.00
2022-07-26T10:47:05.984Z,0.00
2022-07-26T10:49:36.203Z,0.00
2022-07-26T10:52:13.200Z,0.00
2022-07-26T10:55:09.425Z,0.10
2022-07-26T10:57:39.441Z,0.40
2022-07-26T11:00:28.138Z,0.32
2022-07-26T11:02:59.993Z,0.45
2022-07-26T11:05:31.296Z,0.50
2022-07-26T11:08:18.486Z,0.30
2022-07-26T11:10:47.641Z,0.00
2022-07-26T11:13:18.051Z,0.00
2022-07-26T11:15:48.052Z,0.00
2022-07-26T11:18:32.745Z,0.40
2022-07-26T11:21:10.090Z,0.00
2022-07-26T11:23:41.668Z,0.00
2022-07-26T11:26:15.663Z,0.00
2022-07-26T11:29:06.375Z,0.00
2022-07-26T11:31:50.329Z,0.00
2022-07-26T11:34:26.645Z,0.00
2022-07-26T11:36:55.967Z,0.50
2022-07-26T11:39:26.501Z,0.13
2022-07-26T11:41:59.328Z,0.20
2022-07-26T11:44:27.376Z,0.00
2022-07-26T11:46:57.918Z,0.00
2022-07-26T11:49:51.845Z,0.20
2022-07-26T11:52:24.918Z,0.20
2022-07-26T11:54:54.556Z,0.00
2022-07-26T11:57:29.264Z,0.00
2022-07-26T11:59:57.485Z,0.00
2022-07-26T12:02:26.402Z,0.00
2022-07-26T12:05:20.109Z,0.00
2022-07-26T12:07:56.977Z,0.00
2022-07-26T12:10:26.132Z,0.05
2022-07-26T12:13:08.597Z,0.10
2022-07-26T12:15:45.942Z,0.10
2022-07-26T12:18:23.448Z,0.00
2022-07-26T12:21:08.973Z,0.30
2022-07-26T12:23:44.784Z,0.00
2022-07-26T12:26:24.358Z,0.20
2022-07-26T12:28:54.264Z,0.38
2022-07-26T12:31:26.363Z,0.00
2022-07-26T12:33:55.054Z,0.00
2022-07-26T12:36:29.779Z,0.00
2022-07-26T12:39:00.071Z,0.00
2022-07-26T12:41:37.119Z,0.00
2022-07-26T12:44:06.284Z,0.00
2022-07-26T12:47:38.486Z,0.00
2022-07-26T12:50:07.567Z,0.00
2022-07-26T12:52:37.073Z,0.00
2022-07-26T12:55:07.135Z,0.00
2022-07-26T12:57:36.851Z,0.00
2022-07-26T13:00:06.239Z,0.00
2022-07-26T13:02:34.010Z,0.00
2022-07-26T13:05:04.683Z,0.00
2022-07-26T13:07:33.503Z,0.10
2022-07-26T13:12:51.357Z,0.40
2022-07-26T13:15:19.212Z,0.00
2022-07-26T13:17:47.967Z,0.00
2022-07-26T13:20:17.151Z,0.52
2022-07-26T13:22:45.962Z,0.00
2022-07-26T13:25:18.960Z,0.00
2022-07-26T13:27:48.783Z,0.00
2022-07-26T13:30:16.636Z,0.00
2022-07-26T13:32:46.438Z,0.00
2022-07-26T13:35:14.988Z,0.10
2022-07-26T13:37:42.759Z,0.20
2022-07-26T13:40:14.262Z,0.00
2022-07-26T13:42:50.017Z,0.00
2022-07-26T13:45:18.124Z,0.00
2022-07-26T13:47:46.229Z,0.00
2022-07-26T13:50:13.868Z,0.00
2022-07-26T13:52:41.932Z,0.43
2022-07-26T13:55:10.383Z,0.00
2022-07-26T13:57:47.129Z,0.00
2022-07-26T14:00:25.342Z,0.00
2022-07-26T14:02:53.750Z,0.00
2022-07-26T14:05:21.686Z,0.00
2022-07-26T14:07:50.397Z,0.00
2022-07-26T14:10:18.342Z,0.15
2022-07-26T14:12:46.654Z,0.20
2022-07-26T14:15:23.868Z,0.00
2022-07-26T14:18:53.534Z,0.30
2022-07-26T14:21:47.429Z,0.00
2022-07-26T14:25:29.017Z,0.20
2022-07-26T14:27:57.516Z,0.00
2022-07-26T14:30:27.505Z,0.00
2022-07-26T14:33:56.910Z,0.00
2022-07-26T14:36:24.881Z,0.10
2022-07-26T14:38:55.649Z,0.00
2022-07-26T14:41:23.753Z,0.00
2022-07-26T14:43:55.477Z,0.00
2022-07-26T14:46:23.894Z,0.00
2022-07-26T14:48:54.797Z,0.00
2022-07-26T14:51:23.057Z,0.20
2022-07-26T14:53:54.295Z,0.00
2022-07-26T14:56:22.807Z,0.00
2022-07-26T14:58:50.803Z,0.00
2022-07-26T15:01:18.743Z,0.30
2022-07-26T15:03:47.215Z,0.20
2022-07-26T15:06:16.112Z,0.20
2022-07-26T15:08:44.993Z,0.20
2022-07-26T15:11:15.881Z,0.00
2022-07-26T15:13:44.752Z,0.00
2022-07-26T15:16:14.169Z,1.00
2022-07-26T15:18:42.151Z,0.20
2022-07-26T15:21:10.155Z,0.00
2022-07-26T15:23:39.997Z,0.00
2022-07-26T15:26:08.124Z,0.03
2022-07-26T15:28:38.525Z,0.10
2022-07-26T15:31:06.726Z,0.30
2022-07-26T15:33:35.389Z,0.00
2022-07-26T15:36:05.893Z,0.00
2022-07-26T15:38:34.974Z,0.50
2022-07-26T15:41:03.372Z,0.00
2022-07-26T15:43:48.275Z,0.00
2022-07-26T15:46:18.113Z,0.00
2022-07-26T15:48:47.473Z,0.10
2022-07-26T15:51:16.352Z,0.00
2022-07-26T15:53:46.726Z,0.00
2022-07-26T15:56:14.810Z,0.00
2022-07-26T15:58:43.464Z,0.00
2022-07-26T16:01:12.887Z,0.00
2022-07-26T16:03:46.424Z,0.00
2022-07-26T16:06:15.396Z,0.20
2022-07-26T16:09:05.787Z,0.00
2022-07-26T16:12:36.380Z,0.00
2022-07-26T16:15:04.649Z,0.00
2022-07-26T16:17:32.683Z,0.20
2022-07-26T16:20:06.344Z,0.20
2022-07-26T16:22:34.814Z,0.50
2022-07-26T16:25:02.941Z,1.33
2022-07-26T16:27:30.683Z,1.00
2022-07-26T16:29:59.348Z,1.10
2022-07-26T16:32:27.314Z,1.27
2022-07-26T16:34:55.876Z,1.50
2022-07-26T16:37:25.460Z,1.17
2022-07-26T16:39:55.809Z,1.17
2022-07-26T16:42:24.056Z,1.23
2022-07-26T16:44:54.077Z,1.50
2022-07-26T16:47:21.892Z,1.20
2022-07-26T16:49:49.959Z,2.05
2022-07-26T16:52:18.416Z,1.67
2022-07-26T16:54:47.750Z,1.60
2022-07-26T16:57:16.151Z,1.35
2022-07-26T16:59:44.727Z,1.20
2022-07-26T17:03:15.782Z,1.50
2022-07-26T17:05:44.620Z,1.60
2022-07-26T17:08:12.637Z,1.83
2022-07-26T17:10:42.345Z,1.67
2022-07-26T17:13:10.791Z,1.40
2022-07-26T17:15:40.265Z,1.40
2022-07-26T17:18:08.719Z,1.73
2022-07-26T17:20:37.094Z,1.17
2022-07-26T17:23:05.775Z,1.23
2022-07-26T17:25:34.121Z,1.48
2022-07-26T17:28:07.592Z,1.83
2022-07-26T17:30:36.081Z,1.17
2022-07-26T17:33:04.031Z,1.60
2022-07-26T17:35:32.130Z,1.67
2022-07-26T17:38:00.072Z,1.38
2022-07-26T17:40:29.383Z,1.27
2022-07-26T17:42:57.638Z,2.60
2022-07-26T17:45:27.415Z,1.50
2022-07-26T17:47:56.728Z,4.50
2022-07-26T17:50:39.827Z,5.55
2022-07-26T17:53:08.383Z,1.15
2022-07-26T17:55:38.321Z,2.85
2022-07-26T17:58:06.501Z,2.00
2022-07-26T18:00:37.957Z,1.23
2022-07-26T18:03:06.311Z,1.60
2022-07-26T18:05:41.108Z,1.27
2022-07-26T18:08:10.800Z,1.67
2022-07-26T18:10:40.011Z,1.85
2022-07-26T18:13:07.894Z,1.30
2022-07-26T18:15:38.355Z,1.70
2022-07-26T18:18:07.773Z,1.45
2022-07-26T18:24:17.677Z,1.90
2022-07-26T18:26:45.721Z,1.70
2022-07-26T18:29:15.164Z,1.20
2022-07-26T18:31:44.679Z,1.20
2022-07-26T18:34:12.730Z,2.77
2022-07-26T18:36:42.004Z,1.60
2022-07-26T18:39:10.479Z,1.23
2022-07-26T18:42:40.662Z,1.40
2022-07-26T18:45:09.435Z,1.00
2022-07-26T18:47:42.600Z,1.43
2022-07-26T18:50:25.836Z,1.33
2022-07-26T18:52:54.599Z,1.20
2022-07-26T18:55:22.274Z,1.15
2022-07-26T18:57:50.365Z,1.20
2022-07-26T19:01:19.657Z,1.23
2022-07-26T19:03:50.717Z,1.10
2022-07-26T19:06:18.554Z,1.30
2022-07-26T19:08:47.061Z,1.58
2022-07-26T19:11:14.974Z,1.90
2022-07-26T19:13:43.629Z,1.13
2022-07-26T19:16:12.113Z,1.08
2022-07-26T19:18:40.011Z,1.30
2022-07-26T19:21:09.387Z,1.30
2022-07-26T19:23:40.098Z,1.43
2022-07-26T19:26:08.511Z,1.20
2022-07-26T19:28:36.469Z,0.87
2022-07-26T19:31:04.582Z,1.33
2022-07-26T19:33:35.543Z,1.27
2022-07-26T19:36:03.323Z,1.20
2022-07-26T19:38:34.440Z,1.10
2022-07-26T19:41:02.632Z,1.23
2022-07-26T19:43:30.335Z,0.90
2022-07-26T19:45:59.836Z,1.10
2022-07-26T19:48:28.704Z,1.40
2022-07-26T19:50:58.287Z,1.30
2022-07-26T19:53:27.045Z,1.40
2022-07-26T19:55:58.875Z,1.10
2022-07-26T19:58:29.160Z,1.20
2022-07-26T20:00:57.196Z,1.08
2022-07-26T20:03:25.087Z,1.25
2022-07-26T20:05:55.721Z,1.20
2022-07-26T20:08:24.666Z,0.93
2022-07-26T20:10:53.285Z,1.17
2022-07-26T20:13:22.321Z,0.80
2022-07-26T20:15:50.304Z,1.20
2022-07-26T20:18:22.153Z,1.13
2022-07-26T20:20:49.935Z,1.08
2022-07-26T20:23:17.644Z,0.88
2022-07-26T20:25:46.031Z,1.20
2022-07-26T20:28:14.241Z,0.93
2022-07-26T20:30:51.751Z,1.00
2022-07-26T20:33:19.763Z,1.05
2022-07-26T20:35:54.435Z,1.10
2022-07-26T20:38:24.192Z,0.90
2022-07-26T20:40:53.096Z,0.88
2022-07-26T20:43:22.320Z,0.88
2022-07-26T20:45:53.436Z,0.87
2022-07-26T20:48:21.627Z,1.00
2022-07-26T20:50:49.418Z,1.02
2022-07-26T20:53:17.999Z,1.20
2022-07-26T20:55:45.911Z,0.93
2022-07-26T20:58:13.852Z,0.80
2022-07-26T21:00:42.137Z,1.27
2022-07-26T21:03:13.697Z,0.90
2022-07-26T21:05:41.646Z,0.88
2022-07-26T21:08:09.418Z,1.00
2022-07-26T21:10:38.205Z,0.88
2022-07-26T21:13:06.066Z,1.00
2022-07-26T21:15:33.657Z,1.00
2022-07-26T21:18:03.404Z,0.80
2022-07-26T21:21:33.131Z,0.90
2022-07-26T21:24:07.005Z,1.58
2022-07-26T21:26:35.178Z,1.00
2022-07-26T21:29:04.746Z,0.93
2022-07-26T21:31:32.526Z,0.80
2022-07-26T21:34:00.498Z,1.08
2022-07-26T21:36:28.738Z,0.77
2022-07-26T21:38:56.756Z,1.20
2022-07-26T21:41:29.150Z,1.00
2022-07-26T21:43:57.786Z,0.95
2022-07-26T21:46:25.609Z,1.13
2022-07-26T21:48:53.615Z,1.15
2022-07-26T21:51:21.593Z,1.80
2022-07-26T21:53:49.789Z,0.93
2022-07-26T21:57:19.883Z,0.90
2022-07-26T21:59:50.171Z,0.90
2022-07-26T22:02:20.058Z,0.93
2022-07-26T22:04:49.503Z,1.40
2022-07-26T22:07:17.177Z,0.93
2022-07-26T22:09:45.939Z,0.90
2022-07-26T22:12:19.644Z,1.10
2022-07-26T22:14:47.352Z,0.82
2022-07-26T22:17:16.547Z,1.00
2022-07-26T22:19:44.714Z,0.70
2022-07-26T22:22:14.924Z,0.83
2022-07-26T22:24:43.384Z,0.77
2022-07-26T22:27:11.402Z,1.17
2022-07-26T22:29:40.304Z,1.13
2022-07-26T22:32:08.232Z,0.82
2022-07-26T22:34:37.452Z,1.00
2022-07-26T22:37:05.492Z,1.00
2022-07-26T22:39:33.471Z,0.90
2022-07-26T22:42:16.523Z,0.93
2022-07-26T22:44:44.425Z,1.33
2022-07-26T22:47:12.275Z,0.80
2022-07-26T22:49:41.408Z,0.90
2022-07-26T22:52:09.809Z,0.85
2022-07-26T22:54:37.639Z,0.93
2022-07-26T22:57:05.628Z,0.95
2022-07-26T22:59:37.077Z,0.90
2022-07-26T23:02:05.539Z,1.20
2022-07-26T23:04:33.223Z,1.20
2022-07-26T23:07:03.780Z,0.90
2022-07-26T23:09:32.742Z,1.13
2022-07-26T23:12:00.465Z,1.00
2022-07-26T23:14:28.452Z,0.90
2022-07-26T23:17:57.418Z,1.00
2022-07-26T23:20:25.505Z,1.05
2022-07-26T23:22:54.564Z,0.75
2022-07-26T23:25:23.531Z,1.00
2022-07-26T23:27:53.362Z,0.90
2022-07-26T23:30:21.467Z,0.80
2022-07-26T23:32:49.249Z,1.00
2022-07-26T23:35:17.217Z,1.02
2022-07-26T23:37:45.275Z,1.17
2022-07-26T23:40:14.755Z,1.30
2022-07-26T23:42:43.168Z,1.48
2022-07-26T23:45:11.503Z,1.17
2022-07-26T23:47:41.223Z,1.23
2022-07-26T23:50:10.196Z,1.15
2022-07-26T23:52:38.638Z,1.08
2022-07-26T23:56:08.012Z,1.33
2022-07-26T23:58:38.278Z,1.10
